No particular awareness of the weather is required.    There are no Weather-warnings


Meteo18 Weather Cam more information Meteo18 Weather Cam


Thunder radar more information blitzortung!


Rain radar more information rain snow radar


Visit our other weather sites:

Template documentation
and downloads

And another site



Weather Underground History page Text

Daily Summary for November 30, 2017 Units:  Both    English   Metric
« Previous Day
Next Day »
Daily Weekly Monthly Yearly Custom
  High: Low: Average:
Temperature: 37.9 °F /  3.3 °C 31.6 °F /  -0.2 °C 35.6 °F /  2 °C
Dew Point: 36 °F /  2.2 °C 30.6 °F /  -0.8 °C 33.8 °F /  1 °C
Humidity: 96 % 90 % 94 %
Wind Speed: 12 mph /  19.3 km/h - 3.3 mph /  5.3 km/h
Wind Gust: 19 mph /  30.6 km/h - -
Wind:- - WNW
Pressure: 29.9 in /  1012.8 hPa 29.8 in /  1010.0 hPa -
Precipitation: 0.14 in /  3.6 mm    
Historical Graphs
 
 
Tabular Data for November 30, 2017
Time Temperature Dew Point Pressure Wind Wind Speed Wind Gust Humidity Rainfall Rate (Hourly)
00:02 37 °F /  2.8 °C 35.2 °F /  1.8 °C 29.9 in /  1011.4 hPa WNW 2 mph /  3.2 km/h 3 mph /  4.8 km/h 93 % 0 in /  0.0 mm
00:12 36.9 °F /  2.7 °C 35.1 °F /  1.7 °C 29.9 in /  1011.4 hPa West 2 mph /  3.2 km/h 3 mph /  4.8 km/h 93 % 0 in /  0.0 mm
00:17 36.9 °F /  2.7 °C 35.1 °F /  1.7 °C 29.9 in /  1011.4 hPa WNW 4 mph /  6.4 km/h 4 mph /  6.4 km/h 93 % 0 in /  0.0 mm
00:22 36.9 °F /  2.7 °C 35.1 °F /  1.7 °C 29.9 in /  1011.4 hPa West 2 mph /  3.2 km/h 4 mph /  6.4 km/h 93 % 0 in /  0.0 mm
00:47 36.9 °F /  2.7 °C 35.1 °F /  1.7 °C 29.9 in /  1011.4 hPa WNW 1 mph /  1.6 km/h 5 mph /  8.0 km/h 93 % 0 in /  0.0 mm
00:52 36.9 °F /  2.7 °C 35.1 °F /  1.7 °C 29.9 in /  1011.4 hPa West 3 mph /  4.8 km/h 5 mph /  8.0 km/h 93 % 0 in /  0.0 mm
00:57 36.9 °F /  2.7 °C 35.1 °F /  1.7 °C 29.9 in /  1011.4 hPa West 2 mph /  3.2 km/h 4 mph /  6.4 km/h 93 % 0 in /  0.0 mm
01:02 36.7 °F /  2.6 °C 34.9 °F /  1.6 °C 29.9 in /  1011.4 hPa West 4 mph /  6.4 km/h 4 mph /  6.4 km/h 93 % 0 in /  0.0 mm
01:17 36.7 °F /  2.6 °C 34.9 °F /  1.6 °C 29.9 in /  1011.1 hPa WSW 2 mph /  3.2 km/h 7 mph /  11.3 km/h 93 % 0 in /  0.0 mm
01:22 36.7 °F /  2.6 °C 34.9 °F /  1.6 °C 29.9 in /  1011.4 hPa WNW 1 mph /  1.6 km/h 7 mph /  11.3 km/h 93 % 0 in /  0.0 mm
01:42 36.5 °F /  2.5 °C 34.9 °F /  1.6 °C 29.9 in /  1011.1 hPa WNW 3 mph /  4.8 km/h 6 mph /  9.7 km/h 94 % 0 in /  0.0 mm
01:47 36.5 °F /  2.5 °C 34.9 °F /  1.6 °C 29.9 in /  1011.1 hPa West 5 mph /  8.0 km/h 6 mph /  9.7 km/h 94 % 0 in /  0.0 mm
01:52 36.5 °F /  2.5 °C 34.7 °F /  1.5 °C 29.9 in /  1011.1 hPa WNW 5 mph /  8.0 km/h 6 mph /  9.7 km/h 93 % 0 in /  0.0 mm
01:57 36.3 °F /  2.4 °C 34.5 °F /  1.4 °C 29.9 in /  1011.1 hPa West 5 mph /  8.0 km/h 8 mph /  12.9 km/h 93 % 0 in /  0.0 mm
02:12 36.3 °F /  2.4 °C 34.5 °F /  1.4 °C 29.9 in /  1011.1 hPa WNW 5 mph /  8.0 km/h 8 mph /  12.9 km/h 93 % 0 in /  0.0 mm
02:17 36.3 °F /  2.4 °C 34.5 °F /  1.4 °C 29.9 in /  1011.1 hPa West 2 mph /  3.2 km/h 10 mph /  16.1 km/h 93 % 0 in /  0.0 mm
02:22 36.3 °F /  2.4 °C 34.5 °F /  1.4 °C 29.9 in /  1011.1 hPa WNW 4 mph /  6.4 km/h 10 mph /  16.1 km/h 93 % 0 in /  0.0 mm
02:32 36.3 °F /  2.4 °C 34.5 °F /  1.4 °C 29.9 in /  1011.1 hPa NW 5 mph /  8.0 km/h 7 mph /  11.3 km/h 93 % 0 in /  0.0 mm
02:37 36.3 °F /  2.4 °C 34.5 °F /  1.4 °C 29.9 in /  1011.1 hPa West 5 mph /  8.0 km/h 7 mph /  11.3 km/h 93 % 0 in /  0.0 mm
02:47 36.1 °F /  2.3 °C 34.5 °F /  1.4 °C 29.9 in /  1011.4 hPa WNW 7 mph /  11.3 km/h 8 mph /  12.9 km/h 94 % 0 in /  0.0 mm
02:52 36.1 °F /  2.3 °C 34.5 °F /  1.4 °C 29.9 in /  1011.4 hPa West 4 mph /  6.4 km/h 8 mph /  12.9 km/h 94 % 0 in /  0.0 mm
02:57 36.1 °F /  2.3 °C 34.5 °F /  1.4 °C 29.9 in /  1011.4 hPa West 3 mph /  4.8 km/h 7 mph /  11.3 km/h 94 % 0 in /  0.0 mm
03:02 36.3 °F /  2.4 °C 34.7 °F /  1.5 °C 29.9 in /  1011.4 hPa West 3 mph /  4.8 km/h 7 mph /  11.3 km/h 94 % 0 in /  0.0 mm
03:12 36.3 °F /  2.4 °C 34.7 °F /  1.5 °C 29.9 in /  1011.4 hPa West 3 mph /  4.8 km/h 6 mph /  9.7 km/h 94 % 0 in /  0.0 mm
03:37 36.3 °F /  2.4 °C 34.7 °F /  1.5 °C 29.9 in /  1011.1 hPa WNW 5 mph /  8.0 km/h 8 mph /  12.9 km/h 94 % 0 in /  0.0 mm
03:42 36.3 °F /  2.4 °C 34.7 °F /  1.5 °C 29.9 in /  1011.1 hPa NW 12 mph /  19.3 km/h 12 mph /  19.3 km/h 94 % 0 in /  0.0 mm
03:52 36.3 °F /  2.4 °C 34.7 °F /  1.5 °C 29.9 in /  1011.1 hPa West 4 mph /  6.4 km/h 12 mph /  19.3 km/h 94 % 0 in /  0.0 mm
04:02 36.3 °F /  2.4 °C 34.7 °F /  1.5 °C 29.9 in /  1011.1 hPa WNW 4 mph /  6.4 km/h 12 mph /  19.3 km/h 94 % 0 in /  0.0 mm
04:12 36.1 °F /  2.3 °C 34.5 °F /  1.4 °C 29.9 in /  1011.1 hPa NW 5 mph /  8.0 km/h 8 mph /  12.9 km/h 94 % 0 in /  0.0 mm
04:17 36.1 °F /  2.3 °C 34.5 °F /  1.4 °C 29.9 in /  1011.1 hPa WNW 4 mph /  6.4 km/h 11 mph /  17.7 km/h 94 % 0 in /  0.0 mm
04:32 36.1 °F /  2.3 °C 34.5 °F /  1.4 °C 29.9 in /  1011.1 hPa WNW 3 mph /  4.8 km/h 8 mph /  12.9 km/h 94 % 0 in /  0.0 mm
04:42 36 °F /  2.2 °C 34.3 °F /  1.3 °C 29.9 in /  1011.1 hPa WNW 2 mph /  3.2 km/h 11 mph /  17.7 km/h 94 % 0.01 in /  0.3 mm
04:47 36 °F /  2.2 °C 34.3 °F /  1.3 °C 29.9 in /  1011.1 hPa WNW 7 mph /  11.3 km/h 10 mph /  16.1 km/h 94 % 0.02 in /  0.5 mm
04:52 36 °F /  2.2 °C 34.3 °F /  1.3 °C 29.9 in /  1011.1 hPa West 6 mph /  9.7 km/h 10 mph /  16.1 km/h 94 % 0.02 in /  0.5 mm
05:02 36 °F /  2.2 °C 34.3 °F /  1.3 °C 29.9 in /  1011.1 hPa WNW 2 mph /  3.2 km/h 10 mph /  16.1 km/h 94 % 0.02 in /  0.5 mm
05:07 36 °F /  2.2 °C 34.3 °F /  1.3 °C 29.9 in /  1011.1 hPa NW 4 mph /  6.4 km/h 11 mph /  17.7 km/h 94 % 0.02 in /  0.5 mm
05:12 36 °F /  2.2 °C 34.3 °F /  1.3 °C 29.9 in /  1011.1 hPa NW 4 mph /  6.4 km/h 11 mph /  17.7 km/h 94 % 0.02 in /  0.5 mm
05:17 36 °F /  2.2 °C 34.7 °F /  1.5 °C 29.9 in /  1011.1 hPa NW 1 mph /  1.6 km/h 11 mph /  17.7 km/h 95 % 0.02 in /  0.5 mm
05:22 36.1 °F /  2.3 °C 34.9 °F /  1.6 °C 29.9 in /  1011.1 hPa NNW 3 mph /  4.8 km/h 11 mph /  17.7 km/h 95 % 0.02 in /  0.5 mm
05:42 36.3 °F /  2.4 °C 34.7 °F /  1.5 °C 29.9 in /  1011.1 hPa WNW 4 mph /  6.4 km/h 10 mph /  16.1 km/h 94 % 0.01 in /  0.3 mm
05:47 36.3 °F /  2.4 °C 34.7 °F /  1.5 °C 29.9 in /  1011.1 hPa NW 5 mph /  8.0 km/h 8 mph /  12.9 km/h 94 % 0 in /  0.0 mm
05:52 36.3 °F /  2.4 °C 34.7 °F /  1.5 °C 29.9 in /  1011.1 hPa West 2 mph /  3.2 km/h 8 mph /  12.9 km/h 94 % 0 in /  0.0 mm
06:02 36.3 °F /  2.4 °C 34.7 °F /  1.5 °C 29.9 in /  1011.1 hPa West 1 mph /  1.6 km/h 8 mph /  12.9 km/h 94 % 0 in /  0.0 mm
06:12 36.3 °F /  2.4 °C 34.7 °F /  1.5 °C 29.9 in /  1011.1 hPa WNW 4 mph /  6.4 km/h 9 mph /  14.5 km/h 94 % 0 in /  0.0 mm
06:17 36.3 °F /  2.4 °C 34.7 °F /  1.5 °C 29.9 in /  1011.1 hPa NW 3 mph /  4.8 km/h 7 mph /  11.3 km/h 94 % 0 in /  0.0 mm
06:22 36.3 °F /  2.4 °C 34.7 °F /  1.5 °C 29.9 in /  1011.1 hPa WNW 2 mph /  3.2 km/h 7 mph /  11.3 km/h 94 % 0 in /  0.0 mm
06:27 36.3 °F /  2.4 °C 34.7 °F /  1.5 °C 29.9 in /  1011.4 hPa West 4 mph /  6.4 km/h 7 mph /  11.3 km/h 94 % 0 in /  0.0 mm
06:32 36.5 °F /  2.5 °C 34.9 °F /  1.6 °C 29.9 in /  1011.4 hPa WNW 4 mph /  6.4 km/h 7 mph /  11.3 km/h 94 % 0 in /  0.0 mm
06:37 36.5 °F /  2.5 °C 34.9 °F /  1.6 °C 29.9 in /  1011.4 hPa WNW 6 mph /  9.7 km/h 7 mph /  11.3 km/h 94 % 0 in /  0.0 mm
06:42 36.5 °F /  2.5 °C 34.9 °F /  1.6 °C 29.9 in /  1011.4 hPa WNW 4 mph /  6.4 km/h 10 mph /  16.1 km/h 94 % 0 in /  0.0 mm
06:52 36.5 °F /  2.5 °C 34.9 °F /  1.6 °C 29.9 in /  1011.4 hPa NW 5 mph /  8.0 km/h 10 mph /  16.1 km/h 94 % 0 in /  0.0 mm
06:57 36.5 °F /  2.5 °C 34.9 °F /  1.6 °C 29.9 in /  1011.4 hPa WNW 7 mph /  11.3 km/h 9 mph /  14.5 km/h 94 % 0 in /  0.0 mm
07:07 36.5 °F /  2.5 °C 34.9 °F /  1.6 °C 29.9 in /  1011.4 hPa NW 1 mph /  1.6 km/h 9 mph /  14.5 km/h 94 % 0 in /  0.0 mm
07:12 36.5 °F /  2.5 °C 34.9 °F /  1.6 °C 29.9 in /  1011.4 hPa WSW 2 mph /  3.2 km/h 12 mph /  19.3 km/h 94 % 0 in /  0.0 mm
07:17 36.3 °F /  2.4 °C 34.7 °F /  1.5 °C 29.9 in /  1011.4 hPa WNW 4 mph /  6.4 km/h 12 mph /  19.3 km/h 94 % 0 in /  0.0 mm
07:22 36.5 °F /  2.5 °C 34.9 °F /  1.6 °C 29.9 in /  1011.4 hPa NW 3 mph /  4.8 km/h 9 mph /  14.5 km/h 94 % 0.01 in /  0.3 mm
07:32 36.3 °F /  2.4 °C 34.7 °F /  1.5 °C 29.9 in /  1011.4 hPa WNW 2 mph /  3.2 km/h 9 mph /  14.5 km/h 94 % 0.01 in /  0.3 mm
07:42 36.3 °F /  2.4 °C 34.7 °F /  1.5 °C 29.9 in /  1011.4 hPa NW 1 mph /  1.6 km/h 10 mph /  16.1 km/h 94 % 0.01 in /  0.3 mm
07:52 36.3 °F /  2.4 °C 34.7 °F /  1.5 °C 29.9 in /  1011.7 hPa WNW 7 mph /  11.3 km/h 7 mph /  11.3 km/h 94 % 0.01 in /  0.3 mm
07:57 36.3 °F /  2.4 °C 34.7 °F /  1.5 °C 29.9 in /  1011.7 hPa WSW 6 mph /  9.7 km/h 7 mph /  11.3 km/h 94 % 0.01 in /  0.3 mm
08:02 36.3 °F /  2.4 °C 34.7 °F /  1.5 °C 29.9 in /  1011.7 hPa WNW 6 mph /  9.7 km/h 12 mph /  19.3 km/h 94 % 0.01 in /  0.3 mm
08:07 36.3 °F /  2.4 °C 34.7 °F /  1.5 °C 29.9 in /  1011.7 hPa West 1 mph /  1.6 km/h 12 mph /  19.3 km/h 94 % 0.01 in /  0.3 mm
08:12 36.3 °F /  2.4 °C 34.7 °F /  1.5 °C 29.9 in /  1011.7 hPa WNW 5 mph /  8.0 km/h 12 mph /  19.3 km/h 94 % 0 in /  0.0 mm
08:17 36.3 °F /  2.4 °C 34.7 °F /  1.5 °C 29.9 in /  1011.7 hPa West 1 mph /  1.6 km/h 12 mph /  19.3 km/h 94 % 0 in /  0.0 mm
08:22 36.3 °F /  2.4 °C 34.7 °F /  1.5 °C 29.9 in /  1011.7 hPa NW 2 mph /  3.2 km/h 7 mph /  11.3 km/h 94 % 0 in /  0.0 mm
08:32 36.3 °F /  2.4 °C 34.7 °F /  1.5 °C 29.9 in /  1012.1 hPa WNW 2 mph /  3.2 km/h 9 mph /  14.5 km/h 94 % 0 in /  0.0 mm
08:42 36.5 °F /  2.5 °C 34.9 °F /  1.6 °C 29.9 in /  1012.1 hPa NW 3 mph /  4.8 km/h 10 mph /  16.1 km/h 94 % 0 in /  0.0 mm
08:52 36.5 °F /  2.5 °C 34.9 °F /  1.6 °C 29.9 in /  1012.1 hPa WNW 5 mph /  8.0 km/h 10 mph /  16.1 km/h 94 % 0 in /  0.0 mm
09:02 36.5 °F /  2.5 °C 34.9 °F /  1.6 °C 29.9 in /  1012.4 hPa NW 6 mph /  9.7 km/h 11 mph /  17.7 km/h 94 % 0 in /  0.0 mm
09:17 36.5 °F /  2.5 °C 34.9 °F /  1.6 °C 29.9 in /  1012.4 hPa West 2 mph /  3.2 km/h 8 mph /  12.9 km/h 94 % 0 in /  0.0 mm
09:32 36.3 °F /  2.4 °C 34.5 °F /  1.4 °C 29.9 in /  1012.8 hPa NW 5 mph /  8.0 km/h 11 mph /  17.7 km/h 93 % 0 in /  0.0 mm
09:37 36.3 °F /  2.4 °C 34.5 °F /  1.4 °C 29.9 in /  1012.8 hPa WNW 3 mph /  4.8 km/h 11 mph /  17.7 km/h 93 % 0 in /  0.0 mm
09:42 36.5 °F /  2.5 °C 34.7 °F /  1.5 °C 29.9 in /  1012.4 hPa WNW 4 mph /  6.4 km/h 11 mph /  17.7 km/h 93 % 0 in /  0.0 mm
09:47 36.7 °F /  2.6 °C 34.9 °F /  1.6 °C 29.9 in /  1012.4 hPa West 2 mph /  3.2 km/h 11 mph /  17.7 km/h 93 % 0 in /  0.0 mm
10:02 37 °F /  2.8 °C 35.2 °F /  1.8 °C 29.9 in /  1012.4 hPa West 4 mph /  6.4 km/h 6 mph /  9.7 km/h 93 % 0 in /  0.0 mm
10:12 37.2 °F /  2.9 °C 35.1 °F /  1.7 °C 29.9 in /  1012.4 hPa NW 2 mph /  3.2 km/h 9 mph /  14.5 km/h 92 % 0 in /  0.0 mm
10:17 37.6 °F /  3.1 °C 35.4 °F /  1.9 °C 29.9 in /  1012.4 hPa West 4 mph /  6.4 km/h 9 mph /  14.5 km/h 92 % 0 in /  0.0 mm
10:27 37.8 °F /  3.2 °C 35.1 °F /  1.7 °C 29.9 in /  1012.8 hPa WNW 4 mph /  6.4 km/h 11 mph /  17.7 km/h 90 % 0 in /  0.0 mm
10:32 37.8 °F /  3.2 °C 35.1 °F /  1.7 °C 29.9 in /  1012.8 hPa WNW 5 mph /  8.0 km/h 9 mph /  14.5 km/h 90 % 0 in /  0.0 mm
10:57 37.2 °F /  2.9 °C 34.9 °F /  1.6 °C 29.9 in /  1012.8 hPa WNW 5 mph /  8.0 km/h 13 mph /  20.9 km/h 91 % 0 in /  0.0 mm
11:02 37.4 °F /  3.0 °C 35.2 °F /  1.8 °C 29.9 in /  1012.8 hPa NW 3 mph /  4.8 km/h 9 mph /  14.5 km/h 92 % 0 in /  0.0 mm
11:12 37.6 °F /  3.1 °C 35.4 °F /  1.9 °C 29.9 in /  1012.8 hPa SW 2 mph /  3.2 km/h 8 mph /  12.9 km/h 92 % 0 in /  0.0 mm
11:22 37.6 °F /  3.1 °C 35.2 °F /  1.8 °C 29.9 in /  1012.8 hPa WSW 3 mph /  4.8 km/h 9 mph /  14.5 km/h 91 % 0 in /  0.0 mm
11:27 37.6 °F /  3.1 °C 35.2 °F /  1.8 °C 29.9 in /  1012.8 hPa West 1 mph /  1.6 km/h 9 mph /  14.5 km/h 91 % 0 in /  0.0 mm
11:32 37.8 °F /  3.2 °C 35.4 °F /  1.9 °C 29.9 in /  1012.8 hPa NW 4 mph /  6.4 km/h 9 mph /  14.5 km/h 91 % 0 in /  0.0 mm
11:37 37.8 °F /  3.2 °C 35.4 °F /  1.9 °C 29.9 in /  1012.4 hPa West 6 mph /  9.7 km/h 9 mph /  14.5 km/h 91 % 0 in /  0.0 mm
11:47 37.9 °F /  3.3 °C 35.6 °F /  2.0 °C 29.9 in /  1012.4 hPa West 5 mph /  8.0 km/h 9 mph /  14.5 km/h 91 % 0 in /  0.0 mm
11:52 37.9 °F /  3.3 °C 35.2 °F /  1.8 °C 29.9 in /  1012.4 hPa WNW 6 mph /  9.7 km/h 9 mph /  14.5 km/h 90 % 0 in /  0.0 mm
11:57 37.9 °F /  3.3 °C 35.2 °F /  1.8 °C 29.9 in /  1012.4 hPa WNW 5 mph /  8.0 km/h 9 mph /  14.5 km/h 90 % 0 in /  0.0 mm
12:02 37.8 °F /  3.2 °C 35.1 °F /  1.7 °C 29.9 in /  1012.1 hPa WNW 4 mph /  6.4 km/h 10 mph /  16.1 km/h 90 % 0 in /  0.0 mm
12:12 37.8 °F /  3.2 °C 35.4 °F /  1.9 °C 29.9 in /  1012.1 hPa West 6 mph /  9.7 km/h 9 mph /  14.5 km/h 91 % 0 in /  0.0 mm
12:17 37.6 °F /  3.1 °C 35.2 °F /  1.8 °C 29.9 in /  1012.1 hPa West 3 mph /  4.8 km/h 9 mph /  14.5 km/h 91 % 0 in /  0.0 mm
12:27 37.6 °F /  3.1 °C 35.2 °F /  1.8 °C 29.9 in /  1012.1 hPa West 3 mph /  4.8 km/h 8 mph /  12.9 km/h 91 % 0 in /  0.0 mm
12:32 37.6 °F /  3.1 °C 35.2 °F /  1.8 °C 29.9 in /  1012.1 hPa West 8 mph /  12.9 km/h 8 mph /  12.9 km/h 91 % 0 in /  0.0 mm
12:37 37.4 °F /  3.0 °C 35.1 °F /  1.7 °C 29.9 in /  1011.7 hPa West 2 mph /  3.2 km/h 10 mph /  16.1 km/h 91 % 0 in /  0.0 mm
12:42 37.2 °F /  2.9 °C 34.9 °F /  1.6 °C 29.9 in /  1011.7 hPa WNW 6 mph /  9.7 km/h 10 mph /  16.1 km/h 91 % 0 in /  0.0 mm
12:47 37.2 °F /  2.9 °C 34.9 °F /  1.6 °C 29.9 in /  1011.7 hPa West 3 mph /  4.8 km/h 10 mph /  16.1 km/h 91 % 0 in /  0.0 mm
12:52 37.2 °F /  2.9 °C 34.9 °F /  1.6 °C 29.9 in /  1011.7 hPa West 4 mph /  6.4 km/h 10 mph /  16.1 km/h 91 % 0 in /  0.0 mm
13:02 37.2 °F /  2.9 °C 35.1 °F /  1.7 °C 29.9 in /  1011.7 hPa West 5 mph /  8.0 km/h 10 mph /  16.1 km/h 92 % 0 in /  0.0 mm
13:12 37.6 °F /  3.1 °C 35.4 °F /  1.9 °C 29.9 in /  1011.7 hPa WSW 7 mph /  11.3 km/h 8 mph /  12.9 km/h 92 % 0 in /  0.0 mm
13:17 37.6 °F /  3.1 °C 35.2 °F /  1.8 °C 29.9 in /  1011.7 hPa WSW 6 mph /  9.7 km/h 8 mph /  12.9 km/h 91 % 0 in /  0.0 mm
13:22 37.8 °F /  3.2 °C 35.4 °F /  1.9 °C 29.9 in /  1011.4 hPa WSW 6 mph /  9.7 km/h 8 mph /  12.9 km/h 91 % 0 in /  0.0 mm
13:27 37.8 °F /  3.2 °C 35.1 °F /  1.7 °C 29.9 in /  1011.4 hPa West 2 mph /  3.2 km/h 12 mph /  19.3 km/h 90 % 0 in /  0.0 mm
13:32 37.9 °F /  3.3 °C 35.6 °F /  2.0 °C 29.9 in /  1011.4 hPa West 6 mph /  9.7 km/h 12 mph /  19.3 km/h 91 % 0 in /  0.0 mm
13:47 36.9 °F /  2.7 °C 34.5 °F /  1.4 °C 29.9 in /  1011.4 hPa WSW 9 mph /  14.5 km/h 13 mph /  20.9 km/h 91 % 0.02 in /  0.5 mm
13:52 36.7 °F /  2.6 °C 34.9 °F /  1.6 °C 29.9 in /  1011.4 hPa West 7 mph /  11.3 km/h 13 mph /  20.9 km/h 93 % 0.02 in /  0.5 mm
13:57 36.7 °F /  2.6 °C 34.9 °F /  1.6 °C 29.9 in /  1011.4 hPa West 7 mph /  11.3 km/h 12 mph /  19.3 km/h 93 % 0.03 in /  0.8 mm
14:02 36.7 °F /  2.6 °C 34.9 °F /  1.6 °C 29.9 in /  1011.4 hPa WNW 1 mph /  1.6 km/h 12 mph /  19.3 km/h 93 % 0.03 in /  0.8 mm
14:12 35.2 °F /  1.8 °C 33.4 °F /  0.8 °C 29.9 in /  1011.4 hPa NW 3 mph /  4.8 km/h 12 mph /  19.3 km/h 93 % 0.04 in /  1.0 mm
14:17 35.4 °F /  1.9 °C 33.8 °F /  1.0 °C 29.9 in /  1011.4 hPa WNW 2 mph /  3.2 km/h 8 mph /  12.9 km/h 94 % 0.05 in /  1.3 mm
14:22 35.8 °F /  2.1 °C 34.5 °F /  1.4 °C 29.9 in /  1011.4 hPa West 1 mph /  1.6 km/h 8 mph /  12.9 km/h 95 % 0.05 in /  1.3 mm
14:27 36 °F /  2.2 °C 34.3 °F /  1.3 °C 29.9 in /  1011.1 hPa WNW 2 mph /  3.2 km/h 8 mph /  12.9 km/h 94 % 0.05 in /  1.3 mm
14:42 37 °F /  2.8 °C 35.4 °F /  1.9 °C 29.8 in /  1010.7 hPa SW 2 mph /  3.2 km/h 5 mph /  8.0 km/h 94 % 0.05 in /  1.3 mm
14:47 37.6 °F /  3.1 °C 36 °F /  2.2 °C 29.8 in /  1010.7 hPa SW 1 mph /  1.6 km/h 5 mph /  8.0 km/h 94 % 0.03 in /  0.8 mm
14:57 37.9 °F /  3.3 °C 35.8 °F /  2.1 °C 29.8 in /  1010.7 hPa WSW 5 mph /  8.0 km/h 8 mph /  12.9 km/h 92 % 0.02 in /  0.5 mm
15:12 37 °F /  2.8 °C 34.3 °F /  1.3 °C 29.9 in /  1011.1 hPa WNW 6 mph /  9.7 km/h 11 mph /  17.7 km/h 90 % 0.01 in /  0.3 mm
15:22 34.7 °F /  1.5 °C 32.4 °F /  0.2 °C 29.8 in /  1010.7 hPa WNW 6 mph /  9.7 km/h 12 mph /  19.3 km/h 91 % 0.02 in /  0.5 mm
15:32 34.2 °F /  1.2 °C 32.4 °F /  0.2 °C 29.9 in /  1011.1 hPa NW 3 mph /  4.8 km/h 12 mph /  19.3 km/h 93 % 0.02 in /  0.5 mm
15:37 33.8 °F /  1.0 °C 32 °F /  0.0 °C 29.9 in /  1011.1 hPa NNW 5 mph /  8.0 km/h 10 mph /  16.1 km/h 93 % 0.02 in /  0.5 mm
15:42 33.3 °F /  0.7 °C 31.6 °F /  -0.2 °C 29.9 in /  1011.1 hPa NNW 1 mph /  1.6 km/h 10 mph /  16.1 km/h 94 % 0.02 in /  0.5 mm
15:57 33.1 °F /  0.6 °C 31.8 °F /  -0.1 °C 29.9 in /  1011.1 hPa WNW 3 mph /  4.8 km/h 9 mph /  14.5 km/h 95 % 0.03 in /  0.8 mm
16:02 33.1 °F /  0.6 °C 31.8 °F /  -0.1 °C 29.9 in /  1011.1 hPa NNW 2 mph /  3.2 km/h 9 mph /  14.5 km/h 95 % 0.03 in /  0.8 mm
16:12 33.3 °F /  0.7 °C 32 °F /  0.0 °C 29.9 in /  1011.1 hPa West 1 mph /  1.6 km/h 5 mph /  8.0 km/h 95 % 0.02 in /  0.5 mm
16:32 33.6 °F /  0.9 °C 32.4 °F /  0.2 °C 29.8 in /  1010.7 hPa West 1 mph /  1.6 km/h 6 mph /  9.7 km/h 95 % 0.02 in /  0.5 mm
16:37 33.6 °F /  0.9 °C 32.4 °F /  0.2 °C 29.8 in /  1010.7 hPa Calm   6 mph /  9.7 km/h 95 % 0.02 in /  0.5 mm
16:47 34 °F /  1.1 °C 32.4 °F /  0.2 °C 29.9 in /  1011.1 hPa WNW 3 mph /  4.8 km/h 4 mph /  6.4 km/h 94 % 0.02 in /  0.5 mm
16:52 34.2 °F /  1.2 °C 32.5 °F /  0.3 °C 29.9 in /  1011.1 hPa West 2 mph /  3.2 km/h 4 mph /  6.4 km/h 94 % 0.02 in /  0.5 mm
17:02 34.3 °F /  1.3 °C 32.7 °F /  0.4 °C 29.9 in /  1011.1 hPa WNW 2 mph /  3.2 km/h 5 mph /  8.0 km/h 94 % 0.02 in /  0.5 mm
17:07 34.3 °F /  1.3 °C 32.7 °F /  0.4 °C 29.9 in /  1011.1 hPa Calm   5 mph /  8.0 km/h 94 % 0.02 in /  0.5 mm
17:17 34.5 °F /  1.4 °C 32.9 °F /  0.5 °C 29.9 in /  1011.1 hPa West 2 mph /  3.2 km/h 4 mph /  6.4 km/h 94 % 0.01 in /  0.3 mm
17:22 34.9 °F /  1.6 °C 33.3 °F /  0.7 °C 29.9 in /  1011.1 hPa WNW 5 mph /  8.0 km/h 5 mph /  8.0 km/h 94 % 0.01 in /  0.3 mm
17:32 35.1 °F /  1.7 °C 32.9 °F /  0.5 °C 29.9 in /  1011.1 hPa WNW 2 mph /  3.2 km/h 8 mph /  12.9 km/h 92 % 0.02 in /  0.5 mm
17:37 35.1 °F /  1.7 °C 32.9 °F /  0.5 °C 29.9 in /  1011.4 hPa West 2 mph /  3.2 km/h 8 mph /  12.9 km/h 92 % 0.02 in /  0.5 mm
17:52 35.2 °F /  1.8 °C 33.4 °F /  0.8 °C 29.9 in /  1011.4 hPa WSW 4 mph /  6.4 km/h 8 mph /  12.9 km/h 93 % 0.01 in /  0.3 mm
17:57 35.2 °F /  1.8 °C 33.4 °F /  0.8 °C 29.9 in /  1011.4 hPa West 3 mph /  4.8 km/h 8 mph /  12.9 km/h 93 % 0.02 in /  0.5 mm
18:02 35.1 °F /  1.7 °C 33.3 °F /  0.7 °C 29.9 in /  1011.4 hPa WNW 4 mph /  6.4 km/h 7 mph /  11.3 km/h 93 % 0.02 in /  0.5 mm
18:07 35.1 °F /  1.7 °C 33.3 °F /  0.7 °C 29.9 in /  1011.1 hPa WNW 2 mph /  3.2 km/h 7 mph /  11.3 km/h 93 % 0.02 in /  0.5 mm
18:12 35.1 °F /  1.7 °C 33.3 °F /  0.7 °C 29.9 in /  1011.4 hPa West 2 mph /  3.2 km/h 7 mph /  11.3 km/h 93 % 0.02 in /  0.5 mm
18:17 35.2 °F /  1.8 °C 33.4 °F /  0.8 °C 29.9 in /  1011.1 hPa WNW 2 mph /  3.2 km/h 7 mph /  11.3 km/h 93 % 0.02 in /  0.5 mm
18:22 35.1 °F /  1.7 °C 33.3 °F /  0.7 °C 29.9 in /  1011.1 hPa West 1 mph /  1.6 km/h 6 mph /  9.7 km/h 93 % 0.02 in /  0.5 mm
18:32 35.2 °F /  1.8 °C 33.1 °F /  0.6 °C 29.9 in /  1011.4 hPa West 4 mph /  6.4 km/h 6 mph /  9.7 km/h 92 % 0.01 in /  0.3 mm
18:37 35.2 °F /  1.8 °C 33.1 °F /  0.6 °C 29.9 in /  1011.1 hPa West 1 mph /  1.6 km/h 6 mph /  9.7 km/h 92 % 0.01 in /  0.3 mm
18:42 35.2 °F /  1.8 °C 33.1 °F /  0.6 °C 29.9 in /  1011.4 hPa WNW 3 mph /  4.8 km/h 9 mph /  14.5 km/h 92 % 0.01 in /  0.3 mm
18:52 35.2 °F /  1.8 °C 33.1 °F /  0.6 °C 29.9 in /  1011.4 hPa NW 5 mph /  8.0 km/h 6 mph /  9.7 km/h 92 % 0.01 in /  0.3 mm
18:57 35.2 °F /  1.8 °C 32.5 °F /  0.3 °C 29.9 in /  1011.4 hPa NW 10 mph /  16.1 km/h 12 mph /  19.3 km/h 90 % 0.01 in /  0.3 mm
19:02 34.5 °F /  1.4 °C 31.8 °F /  -0.1 °C 29.9 in /  1011.7 hPa NNW 12 mph /  19.3 km/h 12 mph /  19.3 km/h 90 % 0.01 in /  0.3 mm
19:22 32.4 °F /  0.2 °C 31.1 °F /  -0.5 °C 29.9 in /  1011.1 hPa WNW 1 mph /  1.6 km/h 19 mph /  30.6 km/h 95 % 0.01 in /  0.3 mm
19:32 32.4 °F /  0.2 °C 31.1 °F /  -0.5 °C 29.9 in /  1011.1 hPa Calm   9 mph /  14.5 km/h 95 % 0.01 in /  0.3 mm
19:57 32.5 °F /  0.3 °C 31.5 °F /  -0.3 °C 29.8 in /  1010.7 hPa SW 2 mph /  3.2 km/h 3 mph /  4.8 km/h 96 % 0 in /  0.0 mm
20:17 32.7 °F /  0.4 °C 31.6 °F /  -0.2 °C 29.8 in /  1010.7 hPa Calm   3 mph /  4.8 km/h 96 % 0 in /  0.0 mm
20:22 32.7 °F /  0.4 °C 31.6 °F /  -0.2 °C 29.8 in /  1010.7 hPa West 1 mph /  1.6 km/h 3 mph /  4.8 km/h 96 % 0 in /  0.0 mm
20:27 32.7 °F /  0.4 °C 31.6 °F /  -0.2 °C 29.8 in /  1010.4 hPa SW 1 mph /  1.6 km/h 3 mph /  4.8 km/h 96 % 0 in /  0.0 mm
20:52 33.1 °F /  0.6 °C 32 °F /  0.0 °C 29.8 in /  1010.4 hPa Calm   4 mph /  6.4 km/h 96 % 0 in /  0.0 mm
21:02 32.5 °F /  0.3 °C 31.3 °F /  -0.4 °C 29.8 in /  1010.4 hPa East 1 mph /  1.6 km/h 3 mph /  4.8 km/h 95 % 0 in /  0.0 mm
21:12 32.2 °F /  0.1 °C 30.9 °F /  -0.6 °C 29.8 in /  1010.4 hPa Calm   1 mph /  1.6 km/h 95 % 0 in /  0.0 mm
21:17 32.2 °F /  0.1 °C 31.1 °F /  -0.5 °C 29.8 in /  1010.4 hPa Calm   1 mph /  1.6 km/h 96 % 0 in /  0.0 mm
21:22 32.2 °F /  0.1 °C 31.1 °F /  -0.5 °C 29.8 in /  1010.4 hPa Calm   1 mph /  1.6 km/h 96 % 0 in /  0.0 mm
21:27 32.4 °F /  0.2 °C 31.3 °F /  -0.4 °C 29.8 in /  1010.4 hPa NW 2 mph /  3.2 km/h 2 mph /  3.2 km/h 96 % 0 in /  0.0 mm
21:32 32.4 °F /  0.2 °C 31.3 °F /  -0.4 °C 29.8 in /  1010.4 hPa WNW 5 mph /  8.0 km/h 5 mph /  8.0 km/h 96 % 0 in /  0.0 mm
21:42 32.2 °F /  0.1 °C 31.1 °F /  -0.5 °C 29.8 in /  1010.4 hPa Calm   8 mph /  12.9 km/h 96 % 0 in /  0.0 mm
21:47 32.2 °F /  0.1 °C 31.1 °F /  -0.5 °C 29.8 in /  1010.0 hPa WNW 1 mph /  1.6 km/h 8 mph /  12.9 km/h 96 % 0 in /  0.0 mm
22:02 32.2 °F /  0.1 °C 31.1 °F /  -0.5 °C 29.8 in /  1010.0 hPa North 1 mph /  1.6 km/h 4 mph /  6.4 km/h 96 % 0 in /  0.0 mm
22:12 32 °F /  0.0 °C 30.9 °F /  -0.6 °C 29.8 in /  1010.4 hPa Calm   3 mph /  4.8 km/h 96 % 0 in /  0.0 mm
22:17 32 °F /  0.0 °C 30.9 °F /  -0.6 °C 29.8 in /  1010.4 hPa Calm   2 mph /  3.2 km/h 96 % 0 in /  0.0 mm
22:22 31.8 °F /  -0.1 °C 30.7 °F /  -0.7 °C 29.8 in /  1010.7 hPa Calm   1 mph /  1.6 km/h 96 % 0 in /  0.0 mm
22:27 31.8 °F /  -0.1 °C 30.7 °F /  -0.7 °C 29.8 in /  1010.7 hPa Calm   1 mph /  1.6 km/h 96 % 0 in /  0.0 mm
22:32 31.8 °F /  -0.1 °C 30.7 °F /  -0.7 °C 29.8 in /  1010.7 hPa Calm   1 mph /  1.6 km/h 96 % 0 in /  0.0 mm
22:37 31.8 °F /  -0.1 °C 30.7 °F /  -0.7 °C 29.8 in /  1010.7 hPa Calm   1 mph /  1.6 km/h 96 % 0 in /  0.0 mm
22:42 31.6 °F /  -0.2 °C 30.6 °F /  -0.8 °C 29.8 in /  1010.7 hPa Calm   1 mph /  1.6 km/h 96 % 0 in /  0.0 mm
22:52 31.6 °F /  -0.2 °C 30.6 °F /  -0.8 °C 29.8 in /  1010.7 hPa NW 4 mph /  6.4 km/h 5 mph /  8.0 km/h 96 % 0 in /  0.0 mm
22:57 31.8 °F /  -0.1 °C 30.7 °F /  -0.7 °C 29.8 in /  1010.7 hPa WNW 2 mph /  3.2 km/h 9 mph /  14.5 km/h 96 % 0 in /  0.0 mm
23:02 31.8 °F /  -0.1 °C 30.7 °F /  -0.7 °C 29.8 in /  1010.7 hPa WNW 4 mph /  6.4 km/h 9 mph /  14.5 km/h 96 % 0 in /  0.0 mm
23:07 31.8 °F /  -0.1 °C 30.7 °F /  -0.7 °C 29.8 in /  1010.7 hPa WNW 5 mph /  8.0 km/h 9 mph /  14.5 km/h 96 % 0 in /  0.0 mm
23:12 31.8 °F /  -0.1 °C 30.7 °F /  -0.7 °C 29.8 in /  1010.7 hPa West 3 mph /  4.8 km/h 9 mph /  14.5 km/h 96 % 0 in /  0.0 mm
23:22 31.8 °F /  -0.1 °C 30.6 °F /  -0.8 °C 29.8 in /  1010.7 hPa WSW 2 mph /  3.2 km/h 8 mph /  12.9 km/h 95 % 0 in /  0.0 mm
23:27 31.8 °F /  -0.1 °C 30.6 °F /  -0.8 °C 29.8 in /  1010.7 hPa NW 3 mph /  4.8 km/h 6 mph /  9.7 km/h 95 % 0 in /  0.0 mm
Meteo18
Compliments of Weather Underground - 4 mb

Script developed by  Jim McMurry - jmcmurry@mwt.net Adapted for the template by  Wim van der Kuil - Leuven-Template.eu

You find our weather info also at:

European Weather Network

Weather Underground

Equipment we use:

Weather-station
Davis Vue

Weather-program
Meteohub

Weather-server
Raspberry PI 2 B+

Provider
1 and 1

Davis Vue

Meteohub

Raspberry PI 2 B+

1 and 1